createdAt,value
2022-10-01T00:01:00.544Z,83.54
2022-10-01T00:04:01.885Z,83.46
2022-10-01T00:07:04.229Z,83.15
2022-10-01T00:10:06.693Z,83.24
2022-10-01T00:13:08.497Z,83.14
2022-10-01T00:16:13.098Z,83.12
2022-10-01T00:19:14.650Z,82.98
2022-10-01T00:22:16.012Z,82.92
2022-10-01T00:25:17.553Z,82.70
2022-10-01T00:28:18.973Z,82.27
2022-10-01T00:31:20.477Z,82.10
2022-10-01T00:34:22.014Z,82.08
2022-10-01T00:37:23.352Z,81.96
2022-10-01T00:40:24.742Z,81.71
2022-10-01T00:43:32.468Z,81.35
2022-10-01T00:46:42.845Z,81.44
2022-10-01T00:49:44.895Z,81.58
2022-10-01T00:52:52.247Z,81.54
2022-10-01T00:55:56.700Z,81.34
2022-10-01T00:58:58.515Z,80.98
2022-10-01T01:01:59.951Z,80.89
2022-10-01T01:05:02.067Z,80.66
2022-10-01T01:08:03.803Z,80.74
2022-10-01T01:11:21.163Z,80.39
2022-10-01T01:14:34.492Z,80.10
2022-10-01T01:17:55.688Z,79.87
2022-10-01T01:21:29.324Z,79.93
2022-10-01T01:24:46.393Z,79.79
2022-10-01T01:28:29.210Z,79.47
2022-10-01T01:31:36.935Z,79.52
2022-10-01T01:34:42.729Z,79.24
2022-10-01T01:37:51.660Z,79.06
2022-10-01T01:40:55.309Z,79.06
2022-10-01T01:44:00.462Z,78.91
2022-10-01T01:47:03.841Z,78.84
2022-10-01T01:50:05.840Z,78.96
2022-10-01T01:53:07.426Z,79.27
2022-10-01T01:56:09.061Z,79.40
2022-10-01T01:59:10.389Z,78.96
2022-10-01T02:02:19.148Z,78.98
2022-10-01T02:05:25.570Z,78.87
2022-10-01T02:09:05.501Z,78.73
2022-10-01T02:12:27.370Z,78.70
2022-10-01T02:15:41.826Z,78.72
2022-10-01T02:18:55.398Z,78.75
2022-10-01T02:22:00.947Z,78.92
2022-10-01T02:25:06.496Z,78.97
2022-10-01T02:28:11.995Z,78.56
2022-10-01T02:31:15.312Z,78.43
2022-10-01T02:34:20.289Z,78.18
2022-10-01T02:37:26.342Z,78.02
2022-10-01T02:40:32.186Z,77.42
2022-10-01T02:43:49.055Z,77.28
2022-10-01T02:47:04.044Z,77.21
2022-10-01T02:50:07.784Z,77.08
2022-10-01T02:53:17.240Z,76.66
2022-10-01T02:56:19.035Z,76.47
2022-10-01T02:59:21.620Z,76.38
2022-10-01T03:02:24.528Z,76.51
2022-10-01T03:05:25.964Z,76.24
2022-10-01T03:08:27.327Z,76.32
2022-10-01T03:11:28.683Z,76.32
2022-10-01T03:14:30.032Z,76.07
2022-10-01T03:17:31.408Z,76.36
2022-10-01T03:20:32.765Z,76.94
2022-10-01T03:23:34.136Z,78.05
2022-10-01T03:26:35.765Z,78.79
2022-10-01T03:29:37.124Z,79.97
2022-10-01T03:32:39.745Z,81.27
2022-10-01T03:35:41.146Z,82.16
2022-10-01T03:38:42.569Z,83.41
2022-10-01T03:41:44.055Z,84.09
2022-10-01T03:44:45.401Z,85.05
2022-10-01T03:47:55.848Z,85.60
2022-10-01T03:50:59.289Z,86.56
2022-10-01T03:54:00.649Z,88.30
2022-10-01T03:57:02.109Z,87.65
2022-10-01T04:00:04.897Z,87.94
2022-10-01T04:03:14.086Z,88.88
2022-10-01T04:06:16.522Z,89.38
2022-10-01T04:09:17.918Z,89.64
2022-10-01T04:12:19.269Z,90.34
2022-10-01T04:15:20.651Z,90.47
2022-10-01T04:18:22.010Z,91.36
2022-10-01T04:21:23.345Z,91.28
2022-10-01T04:24:24.687Z,91.75
2022-10-01T04:27:26.074Z,92.26
2022-10-01T04:30:30.578Z,92.22
2022-10-01T04:33:31.908Z,92.68
2022-10-01T04:36:33.247Z,92.89
2022-10-01T04:39:34.583Z,93.33
2022-10-01T04:42:39.909Z,93.77
2022-10-01T04:45:41.243Z,94.30
2022-10-01T04:48:42.820Z,94.50
2022-10-01T04:51:44.200Z,95.50
2022-10-01T04:54:45.575Z,95.79
2022-10-01T04:57:47.021Z,96.14
2022-10-01T05:00:49.290Z,96.47
2022-10-01T05:03:50.688Z,96.77
2022-10-01T05:06:52.045Z,96.75
2022-10-01T05:09:53.393Z,96.87
2022-10-01T05:12:54.804Z,97.35
2022-10-01T05:15:56.145Z,97.39
2022-10-01T05:18:57.533Z,97.90
2022-10-01T05:21:59.614Z,97.57
2022-10-01T05:25:01.038Z,98.07
2022-10-01T05:28:02.774Z,98.15
2022-10-01T05:31:04.527Z,98.11
2022-10-01T05:34:05.907Z,98.19
2022-10-01T05:37:07.282Z,98.55
2022-10-01T05:40:08.993Z,98.62
2022-10-01T05:43:10.325Z,98.96
2022-10-01T05:46:11.723Z,98.88
2022-10-01T05:49:13.045Z,99.08
2022-10-01T05:52:15.510Z,99.11
2022-10-01T05:55:16.891Z,99.58
2022-10-01T05:58:18.230Z,99.14
2022-10-01T06:01:19.699Z,99.28
2022-10-01T06:04:21.052Z,99.69
2022-10-01T06:07:22.367Z,99.98
2022-10-01T06:10:24.997Z,100.00
2022-10-01T06:13:26.691Z,100.00
2022-10-01T06:16:28.071Z,100.00
2022-10-01T06:19:29.481Z,100.00
2022-10-01T06:22:30.824Z,100.00
2022-10-01T06:25:32.535Z,100.00
2022-10-01T06:28:34.204Z,100.00
2022-10-01T06:31:35.722Z,100.00
2022-10-01T06:34:37.292Z,100.00
2022-10-01T06:37:38.804Z,100.00
2022-10-01T06:40:40.859Z,100.00
2022-10-01T06:43:42.188Z,100.00
2022-10-01T06:46:43.524Z,100.00
2022-10-01T06:49:47.664Z,100.00
2022-10-01T06:52:49.757Z,100.00
2022-10-01T06:55:51.106Z,100.00
2022-10-01T06:58:52.452Z,100.00
2022-10-01T07:01:56.289Z,100.00
2022-10-01T07:04:58.493Z,100.00
2022-10-01T07:07:59.984Z,100.00
2022-10-01T07:11:03.026Z,100.00
2022-10-01T07:14:04.397Z,100.00
2022-10-01T07:17:05.714Z,100.00
2022-10-01T07:20:07.474Z,100.00
2022-10-01T07:23:12.471Z,100.00
2022-10-01T07:26:13.882Z,100.00
2022-10-01T07:29:15.227Z,100.00
2022-10-01T07:32:16.594Z,100.00
2022-10-01T07:35:18.664Z,100.00
2022-10-01T07:38:20.194Z,100.00
2022-10-01T07:41:21.536Z,100.00
2022-10-01T07:44:22.919Z,100.00
2022-10-01T07:47:24.278Z,100.00
2022-10-01T07:50:27.493Z,100.00
2022-10-01T07:53:28.955Z,100.00
2022-10-01T07:56:30.283Z,100.00
2022-10-01T07:59:31.627Z,100.00
2022-10-01T08:02:33.003Z,100.00
2022-10-01T08:05:35.587Z,100.00
2022-10-01T08:08:36.964Z,100.00
2022-10-01T08:11:38.276Z,100.00
2022-10-01T08:14:39.587Z,100.00
2022-10-01T08:17:41.344Z,100.00
2022-10-01T08:20:42.839Z,100.00
2022-10-01T08:23:44.193Z,100.00
2022-10-01T08:26:45.549Z,100.00
2022-10-01T08:29:46.888Z,100.00
2022-10-01T08:32:48.216Z,100.00
2022-10-01T08:35:49.832Z,100.00
2022-10-01T08:38:51.154Z,100.00
2022-10-01T08:42:21.417Z,100.00
2022-10-01T08:45:33.136Z,100.00
2022-10-01T08:48:43.601Z,100.00
2022-10-01T08:51:57.064Z,100.00
2022-10-01T08:55:06.829Z,100.00
2022-10-01T08:58:15.889Z,100.00
2022-10-01T09:01:17.258Z,100.00
2022-10-01T09:04:18.682Z,100.00
2022-10-01T09:07:49.157Z,100.00
2022-10-01T09:10:59.813Z,100.00
2022-10-01T09:14:20.061Z,100.00
2022-10-01T09:17:51.958Z,100.00
2022-10-01T09:20:58.661Z,100.00
2022-10-01T09:24:09.715Z,100.00
2022-10-01T09:27:15.469Z,100.00
2022-10-01T09:30:20.590Z,100.00
2022-10-01T09:33:23.986Z,100.00
2022-10-01T09:36:35.167Z,100.00
2022-10-01T09:39:51.847Z,100.00
2022-10-01T09:42:53.297Z,100.00
2022-10-01T09:45:55.013Z,100.00
2022-10-01T09:49:03.140Z,100.00
2022-10-01T09:52:13.280Z,100.00
2022-10-01T09:55:36.489Z,100.00
2022-10-01T09:58:40.883Z,100.00
2022-10-01T10:01:47.758Z,100.00
2022-10-01T10:04:59.824Z,99.61
2022-10-01T10:08:23.731Z,99.13
2022-10-01T10:11:28.524Z,98.28
2022-10-01T10:14:35.059Z,98.19
2022-10-01T10:17:36.479Z,98.32
2022-10-01T10:20:44.391Z,97.30
2022-10-01T10:24:07.249Z,97.47
2022-10-01T10:27:22.142Z,95.85
2022-10-01T10:30:24.437Z,95.10
2022-10-01T10:33:26.240Z,94.98
2022-10-01T10:36:32.651Z,95.38
2022-10-01T10:39:37.768Z,95.87
2022-10-01T10:42:47.680Z,93.25
2022-10-01T10:45:52.267Z,92.13
2022-10-01T10:49:00.785Z,92.94
2022-10-01T10:52:02.345Z,93.21
2022-10-01T10:55:22.706Z,91.76
2022-10-01T10:58:26.462Z,90.20
2022-10-01T11:01:29.310Z,88.51
2022-10-01T11:04:39.409Z,87.93
2022-10-01T11:07:44.538Z,87.86
2022-10-01T11:10:48.562Z,86.61
2022-10-01T11:14:22.722Z,85.50
2022-10-01T11:17:57.154Z,84.73
2022-10-01T11:21:10.430Z,84.80
2022-10-01T11:24:23.952Z,84.44
2022-10-01T11:27:53.323Z,84.67
2022-10-01T11:31:00.793Z,83.37
2022-10-01T11:34:17.919Z,81.83
2022-10-01T11:37:39.511Z,79.97
2022-10-01T11:40:42.026Z,80.77
2022-10-01T11:43:49.875Z,80.02
2022-10-01T11:47:17.139Z,77.95
2022-10-01T11:50:23.424Z,78.47
2022-10-01T11:53:37.995Z,76.58
2022-10-01T11:56:52.802Z,77.68
2022-10-01T11:59:59.501Z,78.18
2022-10-01T12:03:05.084Z,78.97
2022-10-01T12:06:10.757Z,78.56
2022-10-01T12:09:26.278Z,80.65
2022-10-01T12:12:38.636Z,82.16
2022-10-01T12:15:49.497Z,82.09
2022-10-01T12:19:25.154Z,82.65
2022-10-01T12:22:31.397Z,83.86
2022-10-01T12:25:41.844Z,84.43
2022-10-01T12:28:52.733Z,84.62
2022-10-01T12:32:14.901Z,85.58
2022-10-01T12:35:22.789Z,85.92
2022-10-01T12:38:46.353Z,86.21
2022-10-01T12:41:59.623Z,87.46
2022-10-01T12:45:36.343Z,87.82
2022-10-01T12:48:43.350Z,88.83
2022-10-01T12:51:47.696Z,88.84
2022-10-01T12:54:58.918Z,88.34
2022-10-01T12:58:38.834Z,87.52
2022-10-01T13:01:59.109Z,88.35
2022-10-01T13:05:26.706Z,88.07
2022-10-01T13:08:53.098Z,88.58
2022-10-01T13:12:25.707Z,89.86
2022-10-01T13:15:32.678Z,91.43
2022-10-01T13:18:42.770Z,91.71
2022-10-01T13:21:52.639Z,91.82
2022-10-01T13:25:03.515Z,92.25
2022-10-01T13:28:16.863Z,92.82
2022-10-01T13:31:18.376Z,93.33
2022-10-01T13:34:45.995Z,93.44
2022-10-01T13:37:47.328Z,94.05
2022-10-01T13:40:57.951Z,93.41
2022-10-01T13:44:18.415Z,93.12
2022-10-01T13:47:21.476Z,92.90
2022-10-01T13:50:24.957Z,93.43
2022-10-01T13:53:27.663Z,93.36
2022-10-01T13:56:32.852Z,93.01
2022-10-01T13:59:36.422Z,92.98
2022-10-01T14:02:41.045Z,92.26
2022-10-01T14:05:42.956Z,92.17
2022-10-01T14:08:50.840Z,91.52
2022-10-01T14:11:58.119Z,91.55
2022-10-01T14:15:02.681Z,91.45
2022-10-01T14:18:09.421Z,91.58
2022-10-01T14:21:45.936Z,90.98
2022-10-01T14:25:10.792Z,90.42
2022-10-01T14:28:34.658Z,90.79
2022-10-01T14:31:56.662Z,91.23
2022-10-01T14:35:19.893Z,91.15
2022-10-01T14:38:21.896Z,91.30
2022-10-01T14:41:24.180Z,91.22
2022-10-01T14:44:31.244Z,90.78
2022-10-01T14:47:32.594Z,90.82
2022-10-01T14:50:36.950Z,90.57
2022-10-01T14:53:42.854Z,90.53
2022-10-01T14:56:44.298Z,90.52
2022-10-01T14:59:48.328Z,91.03
2022-10-01T15:03:02.251Z,91.73
2022-10-01T15:06:10.516Z,92.21
2022-10-01T15:09:14.778Z,91.71
2022-10-01T15:12:18.636Z,92.06
2022-10-01T15:15:24.509Z,92.33
2022-10-01T15:18:26.667Z,92.59
2022-10-01T15:21:35.868Z,92.31
2022-10-01T15:24:42.271Z,92.57
2022-10-01T15:27:43.668Z,93.22
2022-10-01T15:30:45.068Z,92.90
2022-10-01T15:33:46.679Z,93.26
2022-10-01T15:36:49.647Z,92.85
2022-10-01T15:39:52.093Z,92.84
2022-10-01T15:43:13.141Z,92.65
2022-10-01T15:46:22.083Z,93.29
2022-10-01T15:49:26.436Z,93.10
2022-10-01T15:52:29.925Z,93.36
2022-10-01T15:55:37.464Z,93.22
2022-10-01T15:58:52.144Z,93.60
2022-10-01T16:01:53.653Z,93.32
2022-10-01T16:05:05.805Z,93.20
2022-10-01T16:08:07.254Z,93.75
2022-10-01T16:11:14.504Z,93.74
2022-10-01T16:14:27.865Z,93.93
2022-10-01T16:17:37.833Z,93.86
2022-10-01T16:20:41.461Z,94.14
2022-10-01T16:23:45.041Z,94.12
2022-10-01T16:26:47.345Z,94.28
2022-10-01T16:30:22.814Z,93.84
2022-10-01T16:33:24.497Z,94.53
2022-10-01T16:36:25.814Z,94.19
2022-10-01T16:39:27.158Z,94.25
2022-10-01T16:42:28.498Z,94.53
2022-10-01T16:45:36.588Z,94.59
2022-10-01T16:48:37.991Z,95.09
2022-10-01T16:51:39.715Z,95.16
2022-10-01T16:54:41.039Z,95.37
2022-10-01T16:57:42.472Z,95.80
2022-10-01T17:00:43.919Z,95.86
2022-10-01T17:03:45.367Z,96.37
2022-10-01T17:06:46.691Z,96.25
2022-10-01T17:09:48.010Z,96.39
2022-10-01T17:12:49.531Z,96.34
2022-10-01T17:15:51.712Z,96.50
2022-10-01T17:18:53.015Z,96.49
2022-10-01T17:21:54.337Z,96.74
2022-10-01T17:24:55.651Z,96.78
2022-10-01T17:27:57.367Z,97.23
2022-10-01T17:30:58.765Z,97.35
2022-10-01T17:34:00.101Z,97.54
2022-10-01T17:37:01.425Z,97.79
2022-10-01T17:40:04.282Z,98.23
2022-10-01T17:43:05.809Z,98.36
2022-10-01T17:46:07.280Z,98.02
2022-10-01T17:49:08.827Z,97.50
2022-10-01T17:52:10.231Z,96.72
2022-10-01T17:55:11.560Z,96.38
2022-10-01T17:58:12.925Z,95.77
2022-10-01T18:01:18.255Z,95.90
2022-10-01T18:04:19.688Z,96.03
2022-10-01T18:07:21.022Z,96.06
2022-10-01T18:10:22.383Z,96.11
2022-10-01T18:13:23.737Z,96.32
2022-10-01T18:16:26.056Z,96.28
2022-10-01T18:22:49.730Z,96.75
2022-10-01T18:25:51.118Z,97.18
2022-10-01T18:28:52.567Z,97.28
2022-10-01T18:32:01.473Z,97.57
2022-10-01T18:35:14.305Z,98.21
2022-10-01T18:38:27.702Z,98.30
2022-10-01T18:41:35.847Z,98.83
2022-10-01T18:44:37.202Z,99.05
2022-10-01T18:48:07.895Z,98.88
2022-10-01T18:51:36.059Z,98.97
2022-10-01T18:55:02.318Z,99.53
2022-10-01T18:58:32.088Z,99.46
2022-10-01T19:01:51.981Z,100.00
2022-10-01T19:05:22.784Z,100.00
2022-10-01T19:08:40.400Z,99.94
2022-10-01T19:11:56.740Z,99.52
2022-10-01T19:15:21.952Z,99.24
2022-10-01T19:18:48.076Z,99.66
2022-10-01T19:22:17.301Z,99.83
2022-10-01T19:25:48.232Z,99.64
2022-10-01T19:29:06.545Z,100.00
2022-10-01T19:32:16.060Z,99.75
2022-10-01T19:35:19.412Z,99.63
2022-10-01T19:38:40.262Z,100.00
2022-10-01T19:41:49.810Z,100.00
2022-10-01T19:45:20.098Z,99.20
2022-10-01T19:48:30.354Z,99.21
2022-10-01T19:51:55.279Z,98.97
2022-10-01T19:54:58.441Z,99.33
2022-10-01T19:57:59.774Z,99.51
2022-10-01T20:01:03.047Z,99.10
2022-10-01T20:04:07.369Z,99.13
2022-10-01T20:07:23.838Z,99.57
2022-10-01T20:10:29.974Z,99.37
2022-10-01T20:13:50.005Z,98.96
2022-10-01T20:16:53.330Z,99.30
2022-10-01T20:20:17.095Z,98.84
2022-10-01T20:23:46.304Z,98.74
2022-10-01T20:26:54.586Z,99.56
2022-10-01T20:30:20.313Z,99.04
2022-10-01T20:33:34.653Z,100.00
2022-10-01T20:37:09.912Z,99.61
2022-10-01T20:40:17.523Z,99.62
2022-10-01T20:43:34.453Z,99.29
2022-10-01T20:46:47.706Z,99.96
2022-10-01T20:50:00.447Z,100.00
2022-10-01T20:53:16.089Z,99.56
2022-10-01T20:56:24.492Z,99.67
2022-10-01T20:59:48.871Z,99.75
2022-10-01T21:03:10.981Z,100.00
2022-10-01T21:06:19.412Z,100.00
2022-10-01T21:09:30.648Z,100.00
2022-10-01T21:12:39.350Z,100.00
2022-10-01T21:16:06.990Z,100.00
2022-10-01T21:19:42.557Z,100.00
2022-10-01T21:22:52.661Z,99.73
2022-10-01T21:26:05.027Z,99.62
2022-10-01T21:29:09.369Z,100.00
2022-10-01T21:32:32.857Z,100.00
2022-10-01T21:36:06.801Z,100.00
2022-10-01T21:39:17.293Z,100.00
2022-10-01T21:42:25.718Z,100.00
2022-10-01T21:46:04.703Z,100.00
2022-10-01T21:49:19.282Z,100.00
2022-10-01T21:52:46.190Z,100.00
2022-10-01T21:56:09.254Z,100.00
2022-10-01T21:59:38.134Z,100.00
2022-10-01T22:02:54.501Z,100.00
2022-10-01T22:06:15.084Z,100.00
2022-10-01T22:09:34.827Z,100.00
2022-10-01T22:12:40.108Z,100.00
2022-10-01T22:15:44.034Z,100.00
2022-10-01T22:18:54.970Z,100.00
2022-10-01T22:22:04.559Z,100.00
2022-10-01T22:25:07.954Z,100.00
2022-10-01T22:28:14.218Z,100.00
2022-10-01T22:31:21.443Z,100.00
2022-10-01T22:34:28.842Z,100.00
2022-10-01T22:37:47.239Z,100.00
2022-10-01T22:40:59.768Z,100.00
2022-10-01T22:44:11.411Z,100.00
2022-10-01T22:47:31.631Z,100.00
2022-10-01T22:50:46.244Z,100.00
2022-10-01T22:54:23.981Z,100.00
2022-10-01T22:57:43.681Z,100.00
2022-10-01T23:00:59.402Z,100.00
2022-10-01T23:04:12.880Z,100.00
2022-10-01T23:07:28.674Z,100.00
2022-10-01T23:11:07.346Z,100.00
2022-10-01T23:14:22.392Z,100.00
2022-10-01T23:17:42.181Z,100.00
2022-10-01T23:20:50.457Z,100.00
2022-10-01T23:24:14.318Z,100.00
2022-10-01T23:27:33.993Z,100.00
2022-10-01T23:31:32.937Z,100.00
2022-10-01T23:34:48.893Z,100.00
2022-10-01T23:37:59.306Z,100.00
2022-10-01T23:41:39.370Z,100.00
2022-10-01T23:45:17.322Z,100.00
2022-10-01T23:48:51.773Z,100.00
2022-10-01T23:52:13.882Z,100.00
2022-10-01T23:55:35.575Z,100.00
2022-10-01T23:58:45.350Z,100.00
